Terminal Aerodrome Forecast
Issued by NWS

Home | Current Version | Previous Version | Text Only | Print | Product List | Glossary On
Versions: 1 2 3 4 5 6 7 8 9 10 11 12 13 14 15 16 17 18 19 20 21 22 23 24 25 26 27
714
FTUS41 KOKX 050221 AAA
TAFSWF
TAF AMD
KSWF 050221Z 0502/0606 VRB05KT P6SM BKN150 BKN250
     FM050700 13004KT 4SM -SN SCT030 OVC060
     FM050900 14004KT 2SM -SN SCT010 BKN020
      TEMPO 0509/0512 BKN010
     FM051200 18007KT 2SM -SNRA BKN010 OVC020
     FM051500 23006KT 5SM BR BKN010 OVC020
     FM051800 28010G17KT P6SM SCT025 SCT250
     FM052100 30009KT P6SM SCT250
     FM060200 32007KT P6SM SCT250
      AMD NOT SKED=

USA.gov is the U.S. government's official web portal to all federal, state and local government web resources and services.